This is the latest recevied weather packets stored in our database for station/object W4CKA. If no packets are shown the sender has not sent any weather packets the latest 10 day(s).
| Time | Temp. | Humidity | Pressure | Rain* | Wind** | Luminosity | Snow |
|---|---|---|---|---|---|---|---|
| 1777431614 | 18.89° C | 92% | 1058.7 hPa | 0 mm | - | 0 W/m² | - |
| 1777431011 | 18.89° C | 91% | 1059 hPa | 0 mm | - | 0 W/m² | - |
| 1777430409 | 18.89° C | 92% | 1059.1 hPa | 0 mm | - | 0 W/m² | - |
| 1777429806 | 18.89° C | 92% | 1058.8 hPa | 0 mm | - | 0 W/m² | - |
| 1777429204 | 18.89° C | 92% | 1058.8 hPa | 0 mm | - | 0 W/m² | - |
| 1777428602 | 18.89° C | 91% | 1058.7 hPa | 0 mm | - | 0 W/m² | - |
| 1777427998 | 19.44° C | 89% | 1058.7 hPa | 0 mm | - | 0 W/m² | - |
| 1777427393 | 19.44° C | 88% | 1058.7 hPa | 0 mm | - | 0 W/m² | - |
| 1777426792 | 19.44° C | 90% | 1059.1 hPa | 0 mm | - | 0 W/m² | - |
| 1777426190 | 19.44° C | 89% | 1059.1 hPa | 0 mm | - | 0 W/m² | - |
| 1777425587 | 19.44° C | 89% | 1059.3 hPa | 0 mm | - | 0 W/m² | - |
| 1777424986 | 19.44° C | 89% | 1059.4 hPa | 0 mm | - | 0 W/m² | - |
| 1777424382 | 18.33° C | 93% | 1059.5 hPa | 0 mm | - | 0 W/m² | - |
| 1777423776 | 18.33° C | 93% | 1059.1 hPa | 0 mm | - | 0 W/m² | - |
| 1777423173 | 18.33° C | 93% | 1058.7 hPa | 0 mm | - | 0 W/m² | - |
| 1777422569 | 18.89° C | 92% | 1058.6 hPa | 0 mm | - | 0 W/m² | - |
| 1777421964 | 18.89° C | 92% | 1058.5 hPa | 0 mm | - | 0 W/m² | - |
| 1777421361 | 18.89° C | 92% | 1058.4 hPa | 0 mm | - | 0 W/m² | - |
| 1777420760 | 19.44° C | 90% | 1058.1 hPa | 0 mm | - | 5 W/m² | - |
| 1777420159 | 20° C | 87% | 1057.5 hPa | 0 mm | - | 15 W/m² | - |
| 1777419558 | 20° C | 86% | 1056.9 hPa | 0 mm | - | 24 W/m² | - |
| 1777418954 | 20.56° C | 85% | 1057.2 hPa | 0 mm | - | 28 W/m² | - |
| 1777418352 | 20.56° C | 83% | 1057.5 hPa | 0 mm | - | 32 W/m² | - |
| 1777417749 | 21.11° C | 82% | 1057.9 hPa | 0 mm | - | 37 W/m² | - |
| 1777417148 | 22.22° C | 79% | 1058.2 hPa | 0 mm | - | 59 W/m² | - |
* Rain latest hour (hover to see other rain measurements)
** Current wind speed in m/s (hover to see current wind gust speed)